Time;durP1;ratioP1;P1;durP2;ratioP2;P2;SDS_P1;SDS_P2;PMS_P1;PMS_P2;Temp;Humidity;BMP_temperature;BMP_pressure;BME280_temperature;BME280_humidity;BME280_pressure;Samples;Min_cycle;Max_cycle;Signal;HPM_P1;HPM_P2
2022/01/11 00:00:07;;;;;;;35.25;18.02;;;;;;;2.42;97.24;101783.22;4899224;29;20048;-89
2022/01/11 00:02:37;;;;;;;30.50;18.08;;;;;;;2.22;95.98;101745.56;4901013;29;20056;-91
2022/01/11 00:05:18;;;;;;;31.83;18.85;;;;;;;2.41;96.15;101785.81;4900283;29;20052;-90
2022/01/11 00:07:48;;;;;;;32.92;17.65;;;;;;;2.41;95.58;101798.88;4901754;29;20065;-90
2022/01/11 00:10:26;;;;;;;34.77;18.40;;;;;;;2.37;95.83;101799.72;4900918;29;20132;-89
2022/01/11 00:13:03;;;;;;;32.83;18.10;;;;;;;2.11;95.97;101763.78;4899655;29;20573;-89
2022/01/11 00:15:34;;;;;;;33.60;17.70;;;;;;;2.37;96.47;101808.44;4901489;29;20143;-89
2022/01/11 00:18:04;;;;;;;30.27;16.88;;;;;;;2.32;96.87;101799.69;4903779;29;20092;-90
2022/01/11 00:20:38;;;;;;;31.35;18.00;;;;;;;2.45;95.95;101809.41;4898955;29;20056;-89
2022/01/11 00:25:45;;;;;;;36.30;18.70;;;;;;;2.36;95.91;101801.44;4904251;29;20503;-89
2022/01/11 00:28:17;;;;;;;32.15;18.25;;;;;;;2.32;96.36;101804.94;4913633;29;20095;-90
2022/01/11 00:30:48;;;;;;;30.65;17.98;;;;;;;2.46;96.49;101829.44;4899453;29;20140;-89
2022/01/11 00:33:21;;;;;;;32.25;18.48;;;;;;;2.45;96.34;101830.31;4897760;29;20140;-89
2022/01/11 00:35:58;;;;;;;36.35;19.05;;;;;;;2.43;96.50;101831.16;4903563;29;20077;-91
2022/01/11 00:38:32;;;;;;;34.83;19.30;;;;;;;2.38;96.59;101830.22;4896118;29;20048;-89
2022/01/11 00:41:05;;;;;;;36.70;19.52;;;;;;;2.29;96.46;101810.13;4898368;29;20052;-90
2022/01/11 00:43:35;;;;;;;32.25;19.33;;;;;;;2.11;96.20;101779.44;4901369;29;20048;-90
2022/01/11 00:46:05;;;;;;;34.78;19.63;;;;;;;2.27;96.17;101814.44;4892857;29;20055;-90
2022/01/11 00:48:39;;;;;;;37.95;20.70;;;;;;;2.25;96.48;101810.94;4895301;29;20057;-90
2022/01/11 00:51:10;;;;;;;33.40;20.02;;;;;;;2.00;96.97;101773.25;4898013;29;20061;-91
2022/01/11 00:53:37;;;;;;;34.90;19.17;;;;;;;2.22;96.61;101805.69;4900957;29;20048;-90
2022/01/11 00:56:08;;;;;;;32.60;19.13;;;;;;;2.17;96.69;101807.38;4900347;29;20072;-90
2022/01/11 00:58:37;;;;;;;34.00;19.73;;;;;;;1.95;97.00;101764.50;4898550;29;20064;-90
2022/01/11 01:01:07;;;;;;;35.90;19.55;;;;;;;2.12;96.84;101801.22;4900146;29;20080;-90
2022/01/11 01:03:37;;;;;;;;;;;;;;;2.26;96.94;101830.13;4900212;29;20064;-90
2022/01/11 01:06:04;;;;;;;40.35;20.00;;;;;;;2.10;97.15;101814.28;4913546;29;19931;-90
2022/01/11 01:08:41;;;;;;;38.17;19.30;;;;;;;1.87;97.40;101766.16;4892471;29;20102;-91
2022/01/11 01:11:13;;;;;;;41.35;21.00;;;;;;;1.92;96.85;101777.50;4900081;29;20057;-90
2022/01/11 01:13:59;;;;;;;;;;;;;;;;;;;;;
2022/01/11 01:16:31;;;;;;;34.95;19.85;;;;;;;2.06;96.91;101816.84;4899090;29;20080;-90
2022/01/11 01:19:03;;;;;;;38.33;19.63;;;;;;;2.03;97.87;101811.59;4902930;29;20128;-90
2022/01/11 01:21:37;;;;;;;39.10;20.48;;;;;;;1.83;97.64;101795.72;4896181;29;20072;-90
2022/01/11 01:24:09;;;;;;;34.30;19.00;;;;;;;2.13;97.32;101847.41;4903581;29;20183;-90
2022/01/11 01:26:40;;;;;;;37.22;20.65;;;;;;;1.92;97.75;101806.25;4916047;29;20033;-90
2022/01/11 01:29:16;;;;;;;38.35;20.35;;;;;;;1.96;97.42;101812.38;4913956;29;20072;-90
2022/01/11 01:31:52;;;;;;;37.60;20.35;;;;;;;1.89;97.65;101815.81;4919488;29;20028;-89
2022/01/11 01:34:24;;;;;;;36.60;19.33;;;;;;;1.88;97.49;101821.91;4919877;29;20051;-90
2022/01/11 01:36:54;;;;;;;35.28;19.45;;;;;;;1.88;98.07;101834.94;4915272;29;20041;-90
2022/01/11 01:39:26;;;;;;;37.67;20.10;;;;;;;1.91;98.55;101845.41;4912041;29;20041;-88
2022/01/11 01:41:53;;;;;;;40.00;21.27;;;;;;;1.83;98.48;101841.84;4916697;29;20044;-89
2022/01/11 01:44:20;;;;;;;34.67;19.63;;;;;;;1.76;99.01;101825.22;4921245;29;20040;-89
2022/01/11 01:46:50;;;;;;;37.78;20.27;;;;;;;1.74;98.88;101817.34;4907655;29;20125;-89
2022/01/11 01:49:22;;;;;;;32.78;18.40;;;;;;;1.85;98.46;101850.59;4925805;29;20063;-90
2022/01/11 01:51:51;;;;;;;37.72;19.25;;;;;;;1.61;98.26;101809.38;4912214;29;20044;-89
2022/01/11 01:54:21;;;;;;;38.22;19.35;;;;;;;1.72;98.28;101828.69;4905646;29;20114;-89
2022/01/11 01:56:58;;;;;;;37.78;19.23;;;;;;;1.71;98.04;101832.13;4905090;29;20083;-89
2022/01/11 01:59:27;;;;;;;38.33;19.65;;;;;;;1.61;98.42;101811.97;4901631;29;20053;-89
2022/01/11 02:01:54;;;;;;;39.58;20.80;;;;;;;1.83;97.84;101854.91;4897547;29;20083;-90
2022/01/11 02:04:31;;;;;;;37.92;20.75;;;;;;;1.71;98.53;101843.47;4898818;29;20061;-89
2022/01/11 02:07:00;;;;;;;37.13;19.88;;;;;;;1.51;98.36;101802.28;4913385;29;20059;-88
2022/01/11 02:09:27;;;;;;;39.20;20.83;;;;;;;1.78;97.92;101875.72;4900236;29;20060;-89
2022/01/11 02:12:08;;;;;;;39.58;20.33;;;;;;;1.64;98.30;101852.06;4895015;29;20080;-90
2022/01/11 02:14:55;;;;;;;;;;;;;;;;;;;;;
2022/01/11 02:17:28;;;;;;;41.25;20.58;;;;;;;1.51;98.74;101842.31;4898961;29;20063;-91
2022/01/11 02:20:04;;;;;;;40.53;20.75;;;;;;;1.50;98.85;101856.22;4901349;29;20049;-91
2022/01/11 02:22:31;;;;;;;37.10;20.52;;;;;;;1.42;98.93;101838.72;4900553;29;20053;-92
2022/01/11 02:24:58;;;;;;;39.13;21.35;;;;;;;1.61;98.62;101870.28;4904336;29;20056;-91
2022/01/11 02:27:41;;;;;;;41.63;21.45;;;;;;;1.36;99.07;101840.38;4909035;29;20052;-91
2022/01/11 02:30:11;;;;;;;40.60;21.35;;;;;;;1.56;98.65;101884.16;4912481;29;20048;-91
2022/01/11 02:32:55;;;;;;;38.75;19.92;;;;;;;1.40;98.74;101867.41;4905710;29;20057;-91
2022/01/11 02:35:22;;;;;;;39.67;20.17;;;;;;;1.48;99.43;101880.56;4898090;29;20056;-91
2022/01/11 02:37:49;;;;;;;41.25;21.27;;;;;;;1.27;99.00;101857.63;4898538;29;20054;-91
2022/01/11 02:40:18;;;;;;;43.13;21.15;;;;;;;1.28;99.42;101867.22;4897756;29;20124;-91
2022/01/11 02:42:45;;;;;;;39.10;19.45;;;;;;;1.24;100.00;101848.06;4898052;29;20057;-91
2022/01/11 02:45:19;;;;;;;40.72;20.70;;;;;;;1.35;100.00;101875.16;4891949;29;20059;-92
2022/01/11 02:47:47;;;;;;;39.83;20.73;;;;;;;1.28;100.00;101865.50;4898403;29;20077;-91
2022/01/11 02:50:17;;;;;;;41.92;19.73;;;;;;;1.20;99.98;101847.97;4894618;29;20064;-91
2022/01/11 02:52:44;;;;;;;39.78;20.40;;;;;;;1.33;100.00;101878.63;4898089;29;20048;-91
2022/01/11 02:55:27;;;;;;;;;;;;;;;;;;;;;
2022/01/11 02:57:59;;;;;;;40.30;20.40;;;;;;;1.32;100.00;101892.50;4898856;29;20059;-91
2022/01/11 03:00:26;;;;;;;32.43;14.87;;;;;;;1.25;100.00;101882.84;4893674;29;20989;-91
2022/01/11 03:02:53;;;;;;;36.20;19.15;;;;;;;1.07;100.00;101857.38;4896988;29;20587;-91
2022/01/11 03:05:21;;;;;;;41.28;19.73;;;;;;;1.04;100.00;101852.97;4897571;29;20056;-91
2022/01/11 03:07:58;;;;;;;34.53;19.30;;;;;;;1.11;100.00;101874.78;4895621;29;20668;-91
2022/01/11 03:10:32;;;;;;;36.40;18.45;;;;;;;0.99;100.00;101852.03;4893690;29;20079;-91
2022/01/11 03:13:04;;;;;;;40.88;19.75;;;;;;;0.86;100.00;101829.22;4898133;29;20075;-91
2022/01/11 03:15:34;;;;;;;35.97;19.20;;;;;;;1.26;100.00;101893.28;4911575;29;20068;-91
2022/01/11 03:18:09;;;;;;;35.60;18.80;;;;;;;1.21;99.87;101891.50;4902118;29;20080;-91
2022/01/11 03:20:38;;;;;;;37.78;19.25;;;;;;;1.14;100.00;101879.19;4897113;29;20059;-91
2022/01/11 03:23:22;;;;;;;;;;;;;;;;;;;;;
2022/01/11 03:25:54;;;;;;;35.88;18.27;;;;;;;1.15;100.00;101878.34;4901558;29;20052;-91
2022/01/11 03:28:28;;;;;;;36.40;17.80;;;;;;;1.46;100.00;101913.59;4895651;29;20053;-92
2022/01/11 03:31:00;;;;;;;32.60;17.48;;;;;;;1.09;100.00;101860.88;4899920;29;20485;-91
2022/01/11 03:33:28;;;;;;;37.10;18.23;;;;;;;1.40;100.00;101917.00;4901110;29;20112;-91
2022/01/11 03:36:00;;;;;;;39.70;19.58;;;;;;;1.35;100.00;101898.66;4892956;29;20500;-91
2022/01/11 03:38:43;;;;;;;35.53;18.52;;;;;;;1.36;99.36;101889.97;4902762;29;20052;-91
2022/01/11 03:41:19;;;;;;;36.28;18.50;;;;;;;1.27;100.00;101881.13;4896662;29;20416;-91
2022/01/11 03:43:46;;;;;;;36.47;18.27;;;;;;;1.23;100.00;101885.44;4901684;29;20048;-92
2022/01/11 03:46:13;;;;;;;35.08;17.33;;;;;;;1.28;99.83;101886.38;4897532;29;20052;-91
2022/01/11 03:48:40;;;;;;;31.95;17.52;;;;;;;1.33;99.71;101894.28;4905057;29;20044;-91
2022/01/11 03:51:11;;;;;;;33.83;16.80;;;;;;;1.18;100.00;101873.16;4904249;29;20056;-91
2022/01/11 03:54:07;;;;;;;31.02;16.73;;;;;;;1.20;99.61;101866.25;4901142;29;20515;-91
2022/01/11 03:56:57;;;;;;;31.95;16.50;;;;;;;1.33;99.54;101899.50;4899370;29;20146;-91
2022/01/11 03:59:27;;;;;;;32.00;16.10;;;;;;;1.51;99.34;101928.47;4898524;29;20132;-91
2022/01/11 04:01:56;;;;;;;27.05;15.82;;;;;;;1.57;98.49;101922.47;4901577;29;20056;-91
2022/01/11 04:04:26;;;;;;;29.90;14.90;;;;;;;1.39;99.08;101915.25;4905125;29;20056;-91
2022/01/11 04:06:56;;;;;;;26.90;14.80;;;;;;;1.53;98.60;101936.34;4903429;29;20141;-91
2022/01/11 04:09:25;;;;;;;25.38;12.80;;;;;;;1.54;99.06;101936.34;4906630;29;20120;-92
2022/01/11 04:11:52;;;;;;;29.75;15.52;;;;;;;1.54;98.90;101938.09;4905725;29;20048;-91
2022/01/11 04:14:29;;;;;;;31.25;15.90;;;;;;;1.26;99.13;101895.06;4905348;29;20071;-91
2022/01/11 04:16:58;;;;;;;27.55;15.25;;;;;;;1.40;99.26;101925.72;4907316;29;20061;-90
2022/01/11 04:19:29;;;;;;;30.65;14.85;;;;;;;1.33;100.00;101902.97;4903880;29;20045;-91
2022/01/11 04:22:03;;;;;;;29.40;15.15;;;;;;;1.54;99.83;101944.19;4901466;29;20037;-91
2022/01/11 04:24:30;;;;;;;28.15;14.68;;;;;;;1.30;99.16;101899.44;4902731;29;20127;-91
2022/01/11 04:27:02;;;;;;;25.90;13.80;;;;;;;1.46;98.64;101929.25;4902169;29;20060;-91
2022/01/11 04:29:31;;;;;;;25.45;14.40;;;;;;;1.54;98.62;101941.59;4903100;29;20389;-90
2022/01/11 04:32:00;;;;;;;25.73;13.93;;;;;;;1.52;98.24;101940.66;4900344;29;20083;-91
2022/01/11 04:34:43;;;;;;;29.17;14.07;;;;;;;1.37;98.83;101915.22;4901090;29;20109;-91
2022/01/11 04:37:15;;;;;;;24.20;13.60;;;;;;;1.59;98.64;101955.56;4896122;29;20250;-91
2022/01/11 04:39:44;;;;;;;27.83;13.90;;;;;;;1.50;98.22;101937.16;4903027;29;20060;-91
2022/01/11 04:42:14;;;;;;;24.15;13.32;;;;;;;1.57;98.94;101943.38;4902916;29;20052;-90
2022/01/11 04:44:55;;;;;;;26.55;13.15;;;;;;;1.45;98.89;101919.66;4903087;29;20464;-91
2022/01/11 04:47:22;;;;;;;26.30;13.52;;;;;;;1.64;98.58;101956.50;4903606;29;20053;-92
2022/01/11 04:50:10;;;;;;;25.50;13.88;;;;;;;1.49;97.96;101918.84;4904705;29;20064;-91
2022/01/11 04:52:37;;;;;;;26.45;13.52;;;;;;;1.52;97.90;101924.13;4902839;29;20056;-91
2022/01/11 04:55:07;;;;;;;26.55;13.95;;;;;;;1.70;98.13;101964.44;4899961;29;20071;-91
2022/01/11 04:57:43;;;;;;;26.90;13.82;;;;;;;1.34;98.09;101896.91;4901762;29;20049;-91
2022/01/11 05:00:12;;;;;;;25.80;14.15;;;;;;;1.68;98.38;101960.94;4891429;29;20152;-93
2022/01/11 05:02:39;;;;;;;24.77;13.57;;;;;;;1.70;98.62;101956.59;4895278;29;20060;-91
2022/01/11 05:05:06;;;;;;;25.45;13.63;;;;;;;1.73;97.24;101961.00;4896891;29;20061;-91
2022/01/11 05:07:43;;;;;;;25.35;13.63;;;;;;;1.48;96.95;101928.44;4898089;29;20064;-92
2022/01/11 05:10:27;;;;;;;28.88;14.80;;;;;;;1.48;97.37;101938.00;4892627;29;20049;-91
2022/01/11 05:12:57;;;;;;;25.83;14.05;;;;;;;1.50;97.49;101947.59;4898047;29;20060;-88
2022/01/11 05:15:34;;;;;;;25.35;14.35;;;;;;;1.53;98.03;101952.00;4894555;29;20060;-90
2022/01/11 05:18:04;;;;;;;27.73;13.65;;;;;;;1.35;97.94;101918.66;4899379;29;20063;-90
2022/01/11 05:20:37;;;;;;;25.50;14.05;;;;;;;1.57;98.00;101952.06;4894492;29;20112;-90
2022/01/11 05:23:05;;;;;;;28.67;14.35;;;;;;;1.60;97.89;101946.00;4897007;29;20116;-90
2022/01/11 05:25:36;;;;;;;27.58;14.15;;;;;;;1.49;98.48;101924.09;4902088;29;20134;-89
2022/01/11 05:28:04;;;;;;;26.33;14.25;;;;;;;1.56;98.33;101920.72;4901363;29;20386;-90
2022/01/11 05:30:35;;;;;;;26.90;13.18;;;;;;;1.77;97.48;101947.97;4901429;29;20052;-90
2022/01/11 05:33:02;;;;;;;29.50;15.05;;;;;;;1.57;97.38;101912.03;4907113;29;20063;-90
2022/01/11 05:35:29;;;;;;;26.63;14.27;;;;;;;1.69;97.50;101952.25;4908230;29;20052;-90
2022/01/11 05:38:12;;;;;;;;;;;;;;;1.83;97.98;101977.66;4915838;29;20143;-89
2022/01/11 05:40:56;;;;;;;31.83;14.25;;;;;;;1.62;97.52;101946.91;4910287;29;19919;-90
2022/01/11 05:43:32;;;;;;;29.58;15.07;;;;;;;1.47;97.93;101925.78;4913409;29;20090;-90
2022/01/11 05:46:03;;;;;;;27.20;14.85;;;;;;;1.45;98.34;101930.09;4905388;29;20080;-89
2022/01/11 05:48:45;;;;;;;;;;;;;;;1.75;98.87;101978.41;4896120;29;20534;-89
2022/01/11 05:51:18;;;;;;;27.08;14.23;;;;;;;1.57;98.84;101957.28;4898443;29;20002;-89
2022/01/11 05:53:47;;;;;;;29.60;14.65;;;;;;;1.71;98.88;101974.03;4898391;29;20138;-88
2022/01/11 05:56:19;;;;;;;29.02;15.10;;;;;;;1.45;98.52;101933.59;4898629;29;20494;-89
2022/01/11 05:58:55;;;;;;;28.35;14.73;;;;;;;1.62;98.99;101966.03;4897861;29;20052;-90
2022/01/11 06:01:25;;;;;;;33.22;16.40;;;;;;;1.41;98.60;101937.03;4896160;29;20052;-90
2022/01/11 06:03:54;;;;;;;27.17;14.82;;;;;;;1.42;99.10;101932.69;4898034;29;20074;-88
2022/01/11 06:06:28;;;;;;;28.58;15.40;;;;;;;1.80;98.63;101995.91;4896520;29;20045;-89
2022/01/11 06:09:06;;;;;;;;;;;;;;;;;;;;;
2022/01/11 06:11:33;;;;;;;31.10;13.98;;;;;;;1.71;99.05;101974.03;4895062;29;20128;-89
2022/01/11 06:14:20;;;;;;;30.85;14.30;;;;;;;1.53;99.16;101947.66;4898678;29;20072;-88
2022/01/11 06:16:47;;;;;;;29.23;15.80;;;;;;;1.71;98.90;101981.88;4894704;29;20604;-88
2022/01/11 06:19:16;;;;;;;27.02;14.18;;;;;;;1.51;99.68;101946.75;4896362;29;20140;-90
2022/01/11 06:21:42;;;;;;;30.00;15.48;;;;;;;1.82;99.50;101995.06;4891105;29;20523;-88
2022/01/11 06:24:09;;;;;;;28.88;14.60;;;;;;;1.87;99.18;102001.25;4893298;29;20057;-88
2022/01/11 06:26:38;;;;;;;25.77;13.90;;;;;;;1.88;99.01;102007.34;4891983;29;20143;-89
2022/01/11 06:29:09;;;;;;;28.08;14.98;;;;;;;1.84;99.36;101992.47;4902781;29;20083;-88
2022/01/11 06:31:42;;;;;;;26.90;14.32;;;;;;;1.96;99.11;102021.38;4906790;29;20057;-89
2022/01/11 06:34:10;;;;;;;25.17;13.73;;;;;;;1.84;99.45;101995.09;4900461;29;20147;-89
2022/01/11 06:36:38;;;;;;;29.60;15.15;;;;;;;1.92;99.24;102010.00;4893278;29;20152;-89
2022/01/11 06:39:09;;;;;;;31.63;15.18;;;;;;;1.82;99.19;101997.69;4896377;29;20045;-89
2022/01/11 06:41:38;;;;;;;28.42;15.23;;;;;;;2.02;99.24;102021.47;4891600;29;20052;-89
2022/01/11 06:44:10;;;;;;;30.40;15.05;;;;;;;1.84;98.86;101988.13;4894072;29;20084;-89
2022/01/11 06:46:38;;;;;;;29.35;15.38;;;;;;;1.94;99.31;102004.81;4895066;29;20076;-89
2022/01/11 06:49:05;;;;;;;31.33;14.98;;;;;;;1.98;99.92;102006.63;4900727;29;20045;-90
2022/01/11 06:51:35;;;;;;;32.70;14.93;;;;;;;1.93;99.77;101990.00;4896850;29;20099;-90
2022/01/11 06:54:05;;;;;;;26.05;13.90;;;;;;;1.97;99.39;101987.44;4901107;29;20093;-89
2022/01/11 06:56:41;;;;;;;25.75;14.02;;;;;;;2.04;99.44;101988.41;4893536;29;20067;-89
2022/01/11 06:59:12;;;;;;;25.50;14.23;;;;;;;2.02;99.20;101995.34;4898087;29;20063;-90
2022/01/11 07:01:46;;;;;;;31.77;14.85;;;;;;;2.08;98.75;101995.41;4895201;29;20052;-90
2022/01/11 07:04:24;;;;;;;25.95;14.52;;;;;;;2.11;98.77;102011.13;4901118;29;20068;-90
2022/01/11 07:06:51;;;;;;;29.50;15.70;;;;;;;2.04;98.30;101993.66;4895819;29;20108;-90
2022/01/11 07:09:20;;;;;;;28.73;14.63;;;;;;;1.91;98.86;101970.78;4900520;29;20056;-89
2022/01/11 07:11:56;;;;;;;29.80;14.80;;;;;;;2.32;98.70;102037.56;4896994;29;20057;-90
2022/01/11 07:14:24;;;;;;;27.02;14.20;;;;;;;2.23;98.74;102019.13;4904219;29;20060;-91
2022/01/11 07:16:50;;;;;;;28.83;15.25;;;;;;;2.23;98.31;102018.25;4895547;29;20057;-90
2022/01/11 07:19:20;;;;;;;27.95;14.23;;;;;;;2.40;98.29;102041.13;4903476;29;20049;-89
2022/01/11 07:22:04;;;;;;;;;;;;;;;;;;;;;
2022/01/11 07:24:37;;;;;;;27.77;14.63;;;;;;;2.21;97.75;102017.34;4903288;29;20056;-90
2022/01/11 07:27:05;;;;;;;25.63;14.05;;;;;;;2.26;97.57;102020.91;4912746;29;20068;-90
2022/01/11 07:29:32;;;;;;;29.30;14.45;;;;;;;2.41;97.68;102053.34;4914740;29;20049;-91
2022/01/11 07:32:00;;;;;;;26.77;15.00;;;;;;;2.39;97.69;102046.34;4901303;29;20068;-90
2022/01/11 07:34:31;;;;;;;31.20;14.27;;;;;;;2.37;97.37;102035.00;4909944;29;20088;-90
2022/01/11 07:37:06;;;;;;;27.50;14.43;;;;;;;2.52;97.23;102069.16;4910262;29;20061;-92
2022/01/11 07:39:35;;;;;;;29.90;15.13;;;;;;;2.20;96.91;102007.78;4930256;29;20048;-91
2022/01/11 07:42:04;;;;;;;31.33;15.20;;;;;;;2.47;96.96;102052.56;4902936;29;20052;-87
2022/01/11 07:44:34;;;;;;;29.42;14.38;;;;;;;2.50;96.84;102046.50;4897750;29;20125;-89
2022/01/11 07:47:04;;;;;;;29.75;14.82;;;;;;;2.57;96.70;102057.03;4901215;29;20135;-88
2022/01/11 07:49:38;;;;;;;26.50;14.40;;;;;;;2.33;96.99;102023.66;4900966;29;20131;-89
2022/01/11 07:52:05;;;;;;;29.02;14.30;;;;;;;2.73;97.21;102081.66;4904246;29;20084;-89
2022/01/11 07:54:53;;;;;;;26.98;13.38;;;;;;;2.67;96.66;102058.06;4900329;29;20048;-89
2022/01/11 07:57:29;;;;;;;24.98;14.13;;;;;;;2.59;95.83;102044.88;4913995;29;20100;-88
2022/01/11 08:08:55;;;;;;;27.02;13.05;;;;;;;2.76;94.99;102071.22;4952650;23;20102;-89
2022/01/11 08:11:22;;;;;;;24.17;14.10;;;;;;;2.77;94.63;102059.91;4916565;29;20052;-89
2022/01/11 08:13:49;;;;;;;26.13;13.07;;;;;;;2.77;94.80;102067.75;4918036;29;20096;-89
2022/01/11 08:16:15;;;;;;;22.65;13.20;;;;;;;2.72;93.81;102043.25;4900992;29;20048;-89
2022/01/11 08:18:44;;;;;;;26.30;13.90;;;;;;;3.04;93.45;102094.22;4918901;29;20170;-89
2022/01/11 08:21:11;;;;;;;25.67;13.68;;;;;;;3.09;93.92;102096.91;4915788;29;20108;-89
2022/01/11 08:23:38;;;;;;;25.90;14.57;;;;;;;3.11;93.19;102098.66;4901349;29;20049;-89
2022/01/11 08:26:05;;;;;;;27.40;14.25;;;;;;;3.08;92.29;102096.00;4903813;29;20094;-90
2022/01/11 08:28:32;;;;;;;23.10;13.35;;;;;;;3.18;92.47;102103.09;4906752;29;20469;-89
2022/01/11 08:31:00;;;;;;;28.02;14.23;;;;;;;3.14;90.98;102092.59;4899564;29;20143;-89
2022/01/11 08:33:27;;;;;;;25.23;14.05;;;;;;;2.81;91.30;102046.00;4895933;29;20090;-89
2022/01/11 08:35:54;;;;;;;24.48;13.13;;;;;;;3.10;92.06;102107.38;4917446;29;20056;-89
2022/01/11 08:38:21;;;;;;;29.77;14.30;;;;;;;2.96;92.28;102089.78;4903497;29;20056;-89
2022/01/11 08:40:48;;;;;;;24.70;13.20;;;;;;;3.01;92.53;102095.91;4904112;29;20055;-89
2022/01/11 08:43:15;;;;;;;29.15;13.45;;;;;;;3.09;91.24;102099.50;4896556;29;20064;-89
2022/01/11 08:45:41;;;;;;;24.08;13.32;;;;;;;3.10;90.69;102085.56;4901477;29;20056;-89
2022/01/11 08:48:08;;;;;;;25.38;13.35;;;;;;;3.28;91.75;102111.06;4900300;29;20143;-89
2022/01/11 08:50:35;;;;;;;26.73;13.68;;;;;;;3.14;90.93;102083.00;4899782;29;20520;-89
2022/01/11 08:53:02;;;;;;;26.02;13.95;;;;;;;3.06;91.33;102076.78;4894667;29;20497;-89
2022/01/11 08:55:29;;;;;;;26.67;13.88;;;;;;;3.16;91.00;102080.38;4899450;29;20560;-89
2022/01/11 08:57:59;;;;;;;27.63;14.13;;;;;;;3.13;90.26;102073.41;4899670;29;20083;-89
2022/01/11 09:00:26;;;;;;;24.05;13.75;;;;;;;3.32;90.68;102123.28;4903667;29;20056;-90
2022/01/11 09:02:54;;;;;;;24.80;13.60;;;;;;;3.11;90.61;102085.59;4901932;29;20117;-89
2022/01/11 09:05:22;;;;;;;25.13;13.63;;;;;;;3.28;89.89;102114.56;4907388;29;20135;-89
2022/01/11 09:07:50;;;;;;;22.10;12.98;;;;;;;3.23;89.79;102099.66;4897242;29;20076;-89
2022/01/11 09:10:20;;;;;;;30.20;13.93;;;;;;;3.26;90.11;102094.44;4899117;29;20053;-89
2022/01/11 09:12:46;;;;;;;21.67;12.38;;;;;;;3.52;89.73;102132.22;4893100;29;20052;-89
2022/01/11 09:15:14;;;;;;;23.23;13.38;;;;;;;3.59;89.02;102128.81;4900537;29;20143;-90
2022/01/11 09:17:42;;;;;;;22.65;13.00;;;;;;;3.59;88.41;102110.50;4904417;29;20045;-89
2022/01/11 09:20:10;;;;;;;23.88;12.77;;;;;;;3.72;88.14;102128.06;4900129;29;20086;-89
2022/01/11 09:22:37;;;;;;;20.63;13.07;;;;;;;3.79;87.44;102142.06;4897829;29;20151;-90
2022/01/11 09:25:05;;;;;;;26.75;13.55;;;;;;;3.76;87.67;102128.97;4903842;29;20152;-91
2022/01/11 09:27:32;;;;;;;22.45;13.20;;;;;;;3.90;87.91;102144.81;4900672;29;20056;-91
2022/01/11 09:29:59;;;;;;;22.13;12.93;;;;;;;3.85;86.78;102118.56;4903109;29;20052;-90
2022/01/11 09:32:27;;;;;;;23.88;13.15;;;;;;;4.04;86.81;102146.69;4897437;29;20135;-90
2022/01/11 09:34:54;;;;;;;26.38;13.75;;;;;;;3.90;85.65;102124.72;4899576;29;20203;-90
2022/01/11 09:37:23;;;;;;;26.42;14.20;;;;;;;4.11;86.05;102152.81;4898934;29;20095;-89
2022/01/11 09:39:53;;;;;;;23.02;12.77;;;;;;;3.90;85.16;102095.00;4898222;29;20072;-90
2022/01/11 09:42:20;;;;;;;25.75;13.50;;;;;;;4.14;87.23;102121.38;4896516;29;20086;-90
2022/01/11 09:44:47;;;;;;;26.00;13.65;;;;;;;4.39;88.02;102144.31;4899404;29;20067;-90
2022/01/11 09:47:15;;;;;;;25.52;13.02;;;;;;;4.31;85.91;102124.13;4892660;29;20505;-90
2022/01/11 09:49:42;;;;;;;24.35;12.80;;;;;;;4.29;85.15;102123.22;4897996;29;20135;-90
2022/01/11 09:52:10;;;;;;;21.17;13.25;;;;;;;4.41;83.64;102147.78;4902091;29;20088;-90
2022/01/11 09:54:43;;;;;;;22.23;13.23;;;;;;;4.51;83.94;102146.13;4897570;29;20064;-89
2022/01/11 09:57:10;;;;;;;25.02;12.27;;;;;;;4.24;83.31;102102.25;4899299;29;20048;-90
2022/01/11 09:59:37;;;;;;;22.17;12.32;;;;;;;4.32;83.45;102104.91;4894559;29;20060;-89
2022/01/11 10:02:04;;;;;;;21.20;12.60;;;;;;;4.73;83.45;102154.97;4904586;29;20055;-90
2022/01/11 10:04:35;;;;;;;21.15;11.80;;;;;;;4.72;82.28;102135.72;4897744;29;20056;-90
2022/01/11 10:07:05;;;;;;;20.48;12.38;;;;;;;4.99;81.34;102153.34;4902016;29;20496;-90
2022/01/11 10:09:41;;;;;;;21.98;12.70;;;;;;;4.80;80.64;102123.50;4900056;29;20060;-90
2022/01/11 10:12:12;;;;;;;19.77;11.77;;;;;;;4.99;80.81;102160.34;4896667;29;20060;-90
2022/01/11 10:14:45;;;;;;;22.30;12.45;;;;;;;4.89;79.70;102135.78;4897371;29;20064;-90
2022/01/11 10:17:19;;;;;;;19.98;11.93;;;;;;;4.77;80.94;102125.25;4893050;29;20048;-90
2022/01/11 10:19:51;;;;;;;22.35;12.23;;;;;;;4.84;80.69;102151.53;4896939;29;20077;-90
2022/01/11 10:22:22;;;;;;;22.13;11.55;;;;;;;4.82;80.75;102126.16;4891150;29;20063;-90
2022/01/11 10:24:51;;;;;;;20.67;11.68;;;;;;;4.86;80.52;102130.53;4902031;29;20083;-91
2022/01/11 10:27:27;;;;;;;19.83;11.82;;;;;;;4.98;80.82;102150.72;4903956;29;20052;-91
2022/01/11 10:30:12;;;;;;;25.00;12.40;;;;;;;5.00;80.58;102159.47;4900325;29;20055;-90
2022/01/11 10:32:43;;;;;;;22.00;11.80;;;;;;;4.96;80.05;102161.22;4903111;29;20462;-91
2022/01/11 10:35:21;;;;;;;23.15;11.73;;;;;;;4.94;81.38;102162.94;4903857;29;20076;-90
2022/01/11 10:38:11;;;;;;;20.55;11.45;;;;;;;4.87;80.69;102142.81;4895345;29;20519;-91
2022/01/11 10:40:41;;;;;;;17.75;11.30;;;;;;;4.94;80.00;102150.69;4906307;29;20060;-91
2022/01/11 10:43:15;;;;;;;19.45;11.52;;;;;;;4.80;80.46;102138.38;4892383;29;20061;-91
2022/01/11 10:46:00;;;;;;;19.25;10.38;;;;;;;4.85;80.10;102144.53;4904341;29;20056;-88
2022/01/11 10:48:28;;;;;;;14.68;10.27;;;;;;;4.95;79.69;102162.06;4909097;29;20048;-89
2022/01/11 10:51:01;;;;;;;19.33;10.82;;;;;;;4.86;80.20;102155.06;4901827;29;20538;-91
2022/01/11 10:53:38;;;;;;;19.30;11.13;;;;;;;4.62;79.97;102115.56;4896194;29;20053;-89
2022/01/11 10:56:07;;;;;;;17.42;11.10;;;;;;;4.78;80.08;102124.38;4909612;29;20060;-89
2022/01/11 10:59:03;;;;;;;22.15;11.40;;;;;;;4.98;80.31;102153.34;4902773;29;20052;-90
2022/01/11 11:01:31;;;;;;;20.80;11.95;;;;;;;4.99;80.49;102166.47;4904032;29;20464;-90
2022/01/11 11:04:00;;;;;;;18.10;10.70;;;;;;;4.89;80.30;102146.28;4908813;29;20058;-88
2022/01/11 11:06:26;;;;;;;24.50;12.18;;;;;;;4.88;79.84;102134.03;4916681;29;20479;-89
2022/01/11 11:08:53;;;;;;;28.45;12.13;;;;;;;5.01;80.15;102154.25;4914817;29;20056;-89
2022/01/11 11:11:23;;;;;;;22.52;11.88;;;;;;;5.04;81.24;102167.34;4916712;29;20081;-88
2022/01/11 11:13:51;;;;;;;20.48;11.95;;;;;;;5.10;80.95;102167.38;4908010;29;20052;-89
2022/01/11 11:16:28;;;;;;;19.65;11.88;;;;;;;5.17;80.77;102161.28;4910677;29;20052;-89
2022/01/11 11:19:00;;;;;;;20.67;11.88;;;;;;;5.11;80.70;102148.13;4905380;29;20056;-89
2022/01/11 11:21:39;;;;;;;18.80;11.10;;;;;;;5.16;79.76;102135.03;4904971;29;20514;-90
2022/01/11 11:24:12;;;;;;;20.15;11.35;;;;;;;5.17;80.00;102123.66;4900509;29;20055;-90
2022/01/11 11:26:49;;;;;;;20.45;11.07;;;;;;;5.33;79.39;102143.84;4909697;29;20087;-90
2022/01/11 11:29:19;;;;;;;21.55;11.63;;;;;;;5.02;79.41;102095.59;4907559;29;20067;-90
2022/01/11 11:32:06;;;;;;;19.95;11.52;;;;;;;5.35;79.71;102136.84;4901094;29;20473;-90
2022/01/11 11:34:37;;;;;;;18.80;10.85;;;;;;;5.51;78.56;102145.63;4899876;29;20556;-90
2022/01/11 11:37:08;;;;;;;17.52;11.13;;;;;;;5.47;78.32;102141.22;4909325;29;20051;-89
2022/01/11 11:39:37;;;;;;;19.33;11.13;;;;;;;5.39;79.17;102135.94;4898820;29;20045;-90
2022/01/11 11:42:05;;;;;;;18.50;11.35;;;;;;;5.45;78.51;102138.59;4917153;29;20324;-89
2022/01/11 11:44:41;;;;;;;19.75;11.82;;;;;;;5.21;78.50;102089.50;4895410;29;20053;-89
2022/01/11 11:47:09;;;;;;;17.85;11.45;;;;;;;5.50;78.90;102125.47;4902412;29;20090;-90
2022/01/11 11:49:49;;;;;;;20.63;11.13;;;;;;;5.72;78.96;102136.88;4901827;29;20072;-91
2022/01/11 11:52:24;;;;;;;18.42;11.45;;;;;;;5.81;77.43;102132.50;4899079;29;20071;-90
2022/01/11 11:54:51;;;;;;;20.83;12.23;;;;;;;5.89;77.95;102129.91;4891870;29;20527;-90